Time;durP1;ratioP1;P1;durP2;ratioP2;P2;SDS_P1;SDS_P2;PMS_P1;PMS_P2;Temp;Humidity;BMP_temperature;BMP_pressure;BME280_temperature;BME280_humidity;BME280_pressure;Samples;Min_cycle;Max_cycle;Signal;HPM_P1;HPM_P2
2024/01/05 00:02:07;;;;;;;0.70;0.70;;;4.30;1.00;;;;;;5135654;28;20172;-81
2024/01/05 00:04:32;;;;;;;0.80;0.80;;;4.30;1.00;;;;;;5138687;28;20175;-81
2024/01/05 00:06:58;;;;;;;0.80;0.80;;;4.30;1.00;;;;;;5138089;27;20200;-80
2024/01/05 00:09:23;;;;;;;0.70;0.70;;;4.20;1.00;;;;;;5100663;27;1090429;-81
2024/01/05 00:11:51;;;;;;;0.87;0.87;;;4.30;1.00;;;;;;5138572;27;20180;-81
2024/01/05 00:14:16;;;;;;;0.70;0.70;;;4.20;1.00;;;;;;5131288;27;20231;-81
2024/01/05 00:16:42;;;;;;;0.77;0.77;;;4.20;1.00;;;;;;5118325;28;20729;-81
2024/01/05 00:19:08;;;;;;;0.80;0.80;;;4.20;1.00;;;;;;5118647;28;20181;-80
2024/01/05 00:21:33;;;;;;;0.77;0.77;;;4.20;1.00;;;;;;5118610;28;20165;-80
2024/01/05 00:23:59;;;;;;;0.80;0.80;;;4.10;1.00;;;;;;5118323;28;20176;-80
2024/01/05 00:26:25;;;;;;;0.70;0.70;;;4.10;1.00;;;;;;5118128;28;20645;-80
2024/01/05 00:28:51;;;;;;;0.90;0.90;;;4.10;1.00;;;;;;5119106;28;20181;-80
2024/01/05 00:31:16;;;;;;;0.87;0.87;;;4.20;1.00;;;;;;5125611;27;20174;-80
2024/01/05 00:33:43;;;;;;;0.80;0.80;;;4.20;1.00;;;;;;5120529;28;20642;-79
2024/01/05 00:36:10;;;;;;;0.90;0.90;;;4.10;1.00;;;;;;5118868;27;20219;-81
2024/01/05 00:38:36;;;;;;;0.90;0.90;;;4.10;1.00;;;;;;5118936;28;20717;-81
2024/01/05 00:41:02;;;;;;;0.80;0.80;;;4.10;1.00;;;;;;5123527;27;20614;-81
2024/01/05 00:43:28;;;;;;;0.80;0.80;;;4.10;1.00;;;;;;5139820;27;20165;-80
2024/01/05 00:45:55;;;;;;;0.83;0.83;;;4.00;1.00;;;;;;5137426;27;20203;-81
2024/01/05 00:48:20;;;;;;;0.90;0.90;;;4.00;1.00;;;;;;5137122;27;20705;-81
2024/01/05 00:50:46;;;;;;;0.80;0.80;;;4.00;1.00;;;;;;5137856;27;20164;-80
2024/01/05 00:53:12;;;;;;;0.70;0.70;;;4.00;1.00;;;;;;5136637;27;20180;-81
2024/01/05 00:55:37;;;;;;;0.80;0.80;;;4.00;1.00;;;;;;5136430;27;20235;-80
2024/01/05 00:58:03;;;;;;;0.80;0.80;;;4.00;1.00;;;;;;5137668;27;20625;-81
2024/01/05 01:00:29;;;;;;;0.73;0.73;;;4.00;1.00;;;;;;5138249;27;20173;-80
2024/01/05 01:02:54;;;;;;;0.80;0.80;;;3.90;1.00;;;;;;5138525;27;20236;-81
2024/01/05 01:05:21;;;;;;;0.80;0.80;;;4.00;1.00;;;;;;5138113;27;20179;-79
2024/01/05 01:07:47;;;;;;;0.80;0.80;;;4.00;1.00;;;;;;5118470;27;20284;-81
2024/01/05 01:10:12;;;;;;;0.80;0.80;;;4.00;1.00;;;;;;5118180;28;20220;-79
2024/01/05 01:12:38;;;;;;;0.90;0.90;;;4.00;1.00;;;;;;5116432;28;20188;-81
2024/01/05 01:15:04;;;;;;;0.90;0.90;;;4.00;1.00;;;;;;5117917;28;20222;-81
2024/01/05 01:17:30;;;;;;;0.80;0.80;;;4.00;1.00;;;;;;5116834;28;20215;-80
2024/01/05 01:19:56;;;;;;;0.80;0.80;;;4.10;1.00;;;;;;5116712;28;20173;-81
2024/01/05 01:22:22;;;;;;;0.80;0.80;;;4.10;1.00;;;;;;5117525;28;20169;-81
2024/01/05 01:24:47;;;;;;;0.70;0.70;;;4.10;1.00;;;;;;5133458;27;20178;-81
2024/01/05 01:27:14;;;;;;;0.80;0.80;;;4.10;1.00;;;;;;5137402;27;20188;-81
2024/01/05 01:29:39;;;;;;;0.70;0.70;;;4.10;1.00;;;;;;5137736;27;20614;-81
2024/01/05 01:32:05;;;;;;;0.90;0.90;;;4.10;1.00;;;;;;5137276;27;20175;-81
2024/01/05 01:34:31;;;;;;;0.80;0.80;;;4.10;1.00;;;;;;5138335;27;20245;-80
2024/01/05 01:36:56;;;;;;;0.70;0.70;;;4.10;1.00;;;;;;5138043;27;20681;-80
2024/01/05 01:39:22;;;;;;;0.80;0.80;;;4.10;1.00;;;;;;5138586;27;20169;-81
2024/01/05 01:41:47;;;;;;;0.77;0.77;;;4.00;1.00;;;;;;5133880;27;20173;-80
2024/01/05 01:44:13;;;;;;;0.80;0.80;;;4.10;1.00;;;;;;5120918;28;20173;-80
2024/01/05 01:46:39;;;;;;;0.80;0.80;;;4.10;1.00;;;;;;5119935;28;20196;-79
2024/01/05 01:49:05;;;;;;;0.80;0.80;;;4.10;1.00;;;;;;5118821;28;20200;-81
2024/01/05 01:51:32;;;;;;;0.80;0.80;;;4.20;1.00;;;;;;5125601;27;20176;-80
2024/01/05 01:54:04;;;;;;;0.80;0.80;;;4.20;1.00;;;;;;5135477;27;20169;-81
2024/01/05 01:56:31;;;;;;;0.80;0.80;;;4.20;1.00;;;;;;5135607;27;20208;-81
2024/01/05 01:58:57;;;;;;;0.80;0.80;;;4.20;1.00;;;;;;5134369;27;20169;-79
2024/01/05 02:01:23;;;;;;;0.80;0.80;;;4.20;1.00;;;;;;5135622;27;20710;-80
2024/01/05 02:03:50;;;;;;;0.90;0.90;;;4.20;1.00;;;;;;5135890;28;20164;-79
2024/01/05 02:06:16;;;;;;;0.70;0.70;;;4.20;1.00;;;;;;5135228;27;20615;-80
2024/01/05 02:08:43;;;;;;;0.70;0.70;;;4.30;1.00;;;;;;5136647;27;20192;-79
2024/01/05 02:11:09;;;;;;;0.80;0.80;;;4.30;1.00;;;;;;5136203;27;20173;-80
2024/01/05 02:13:34;;;;;;;0.80;0.80;;;4.30;1.00;;;;;;5136612;27;20205;-81
2024/01/05 02:16:00;;;;;;;0.80;0.80;;;4.20;1.00;;;;;;5135232;28;20291;-79
2024/01/05 02:18:25;;;;;;;0.80;0.80;;;4.20;1.00;;;;;;5155873;27;20152;-79
2024/01/05 02:20:51;;;;;;;0.70;0.70;;;4.20;1.00;;;;;;5152269;27;20595;-79
2024/01/05 02:23:31;;;;;;;0.80;0.80;;;4.20;1.00;;;;;;5127694;28;20177;-81
2024/01/05 02:25:57;;;;;;;0.90;0.90;;;4.20;1.00;;;;;;5114234;28;20193;-82
2024/01/05 02:28:23;;;;;;;0.80;0.80;;;4.20;1.00;;;;;;5116103;28;20173;-81
2024/01/05 02:30:49;;;;;;;0.80;0.80;;;4.20;1.00;;;;;;5116534;28;20866;-82
2024/01/05 02:33:15;;;;;;;0.80;0.80;;;4.20;1.00;;;;;;5136309;28;20183;-82
2024/01/05 02:35:41;;;;;;;0.73;0.73;;;4.20;1.00;;;;;;5136008;27;20547;-81
2024/01/05 02:38:06;;;;;;;0.80;0.80;;;4.20;1.00;;;;;;5136616;28;20180;-81
2024/01/05 02:40:32;;;;;;;0.73;0.73;;;4.10;1.00;;;;;;5137066;28;20664;-81
2024/01/05 02:42:58;;;;;;;0.80;0.80;;;4.20;1.00;;;;;;5136350;27;20165;-82
2024/01/05 02:45:24;;;;;;;0.80;0.80;;;4.20;1.00;;;;;;5136704;27;20176;-80
2024/01/05 02:47:53;;;;;;;0.90;0.90;;;4.20;1.00;;;;;;5135633;27;20276;-80
2024/01/05 02:50:20;;;;;;;0.70;0.70;;;4.30;1.20;;;;;;5134396;28;20173;-82
2024/01/05 02:52:45;;;;;;;0.83;0.83;;;4.30;1.10;;;;;;5135730;27;20308;-81
2024/01/05 02:55:12;;;;;;;0.87;0.87;;;4.30;1.00;;;;;;5135288;28;20169;-81
2024/01/05 02:57:38;;;;;;;0.80;0.80;;;4.30;4.10;;;;;;5135119;28;20355;-79
2024/01/05 03:00:05;;;;;;;0.90;0.90;;;4.30;5.90;;;;;;5135612;27;20169;-81
2024/01/05 03:02:31;;;;;;;0.90;0.90;;;4.30;1.00;;;;;;5139256;27;20172;-81
2024/01/05 03:04:57;;;;;;;0.80;0.80;;;4.30;1.00;;;;;;5139001;27;20168;-81
2024/01/05 03:07:23;;;;;;;0.80;0.80;;;4.40;1.00;;;;;;5137336;27;20589;-81
2024/01/05 03:09:49;;;;;;;0.80;0.80;;;4.30;1.00;;;;;;5138762;27;20182;-81
2024/01/05 03:12:14;;;;;;;0.80;0.80;;;4.30;1.00;;;;;;5138620;27;20192;-81
2024/01/05 03:14:40;;;;;;;0.80;0.80;;;4.30;1.00;;;;;;5137916;27;20210;-80
2024/01/05 03:17:05;;;;;;;0.80;0.80;;;4.30;1.00;;;;;;5136868;27;20208;-81
2024/01/05 03:19:31;;;;;;;0.70;0.70;;;4.30;1.00;;;;;;5136088;27;20313;-81
2024/01/05 03:21:57;;;;;;;0.77;0.77;;;4.20;1.00;;;;;;5137633;27;20196;-79
2024/01/05 03:24:22;;;;;;;0.80;0.80;;;4.20;1.00;;;;;;5137105;27;20172;-82
2024/01/05 03:26:48;;;;;;;0.80;0.80;;;4.20;1.00;;;;;;5136212;27;20253;-82
2024/01/05 03:29:14;;;;;;;0.80;0.80;;;4.20;1.00;;;;;;5136159;27;20319;-81
2024/01/05 03:31:42;;;;;;;0.70;0.70;;;4.10;1.00;;;;;;5115314;27;20177;-80
2024/01/05 03:34:08;;;;;;;0.80;0.80;;;4.10;1.00;;;;;;5116089;28;20260;-81
2024/01/05 03:36:33;;;;;;;0.70;0.70;;;4.20;1.00;;;;;;5115752;27;20304;-83
2024/01/05 03:38:59;;;;;;;0.73;0.73;;;4.20;1.00;;;;;;5108543;28;20186;-82
2024/01/05 03:41:25;;;;;;;0.80;0.80;;;4.20;1.00;;;;;;5097592;28;20165;-83
2024/01/05 03:43:51;;;;;;;0.90;0.90;;;4.10;1.00;;;;;;5094907;28;20600;-82
2024/01/05 03:46:16;;;;;;;0.80;0.80;;;4.10;1.00;;;;;;5093396;28;20193;-83
2024/01/05 03:48:42;;;;;;;0.70;0.70;;;4.10;1.00;;;;;;5093673;28;20178;-81
2024/01/05 03:51:07;;;;;;;0.70;0.70;;;4.10;1.00;;;;;;5093330;28;20181;-80
2024/01/05 03:53:33;;;;;;;0.80;0.80;;;4.10;1.00;;;;;;5094083;28;20239;-81
2024/01/05 03:55:59;;;;;;;0.70;0.70;;;4.10;1.00;;;;;;5093692;28;20209;-82
2024/01/05 03:58:25;;;;;;;0.70;0.70;;;4.10;1.00;;;;;;5095483;28;20174;-81
2024/01/05 04:00:50;;;;;;;0.80;0.80;;;4.20;1.00;;;;;;5107635;28;20204;-80
2024/01/05 04:03:19;;;;;;;0.80;0.80;;;4.20;1.00;;;;;;5108723;28;20223;-81
2024/01/05 04:05:44;;;;;;;0.90;0.90;;;4.20;1.00;;;;;;5108185;28;20177;-80
2024/01/05 04:08:10;;;;;;;0.80;0.80;;;4.30;1.00;;;;;;5108444;28;20182;-81
2024/01/05 04:10:36;;;;;;;0.80;0.80;;;4.40;1.00;;;;;;5109532;28;20185;-80
2024/01/05 04:13:03;;;;;;;0.87;0.87;;;4.50;1.00;;;;;;5117399;28;20177;-81
2024/01/05 04:15:29;;;;;;;0.70;0.70;;;4.60;1.00;;;;;;5122127;28;20202;-81
2024/01/05 04:17:54;;;;;;;0.90;0.90;;;4.60;1.00;;;;;;5124246;28;20555;-83
2024/01/05 04:20:20;;;;;;;0.90;0.90;;;4.60;1.00;;;;;;5116222;28;20261;-83
2024/01/05 04:22:45;;;;;;;0.80;0.80;;;4.60;1.00;;;;;;5116627;28;20268;-82
2024/01/05 04:25:11;;;;;;;0.80;0.80;;;4.60;1.00;;;;;;5115958;28;20275;-82
2024/01/05 04:27:38;;;;;;;0.70;0.70;;;4.60;1.00;;;;;;5116286;28;20204;-82
2024/01/05 04:30:05;;;;;;;0.77;0.77;;;4.60;1.00;;;;;;5114908;28;20173;-82
2024/01/05 04:32:30;;;;;;;1.00;1.00;;;4.60;1.00;;;;;;5114466;28;20260;-82
2024/01/05 04:34:56;;;;;;;0.80;0.80;;;4.60;1.00;;;;;;5116402;27;20196;-82
2024/01/05 04:37:21;;;;;;;0.80;0.80;;;4.60;1.00;;;;;;5116001;28;20209;-82
2024/01/05 04:39:47;;;;;;;0.80;0.80;;;4.60;1.00;;;;;;5114677;28;20547;-83
2024/01/05 04:42:13;;;;;;;0.80;0.80;;;4.60;1.00;;;;;;5115922;28;20173;-81
2024/01/05 04:44:39;;;;;;;0.90;0.90;;;4.70;1.00;;;;;;5116073;28;20177;-82
2024/01/05 04:47:04;;;;;;;0.80;0.80;;;4.70;1.00;;;;;;5117380;28;20193;-80
2024/01/05 04:49:31;;;;;;;0.70;0.70;;;4.80;1.00;;;;;;5124984;28;20181;-80
2024/01/05 04:51:58;;;;;;;0.80;0.80;;;4.90;1.00;;;;;;5116698;28;20544;-81
2024/01/05 04:54:23;;;;;;;0.80;0.80;;;4.90;1.00;;;;;;5117583;28;20169;-83
2024/01/05 04:56:49;;;;;;;0.70;0.70;;;4.90;1.00;;;;;;5116487;28;20203;-83
2024/01/05 04:59:14;;;;;;;0.80;0.80;;;5.00;1.00;;;;;;5117425;28;20173;-82
2024/01/05 05:01:40;;;;;;;0.70;0.70;;;5.00;1.00;;;;;;5117330;28;20218;-82
2024/01/05 05:04:05;;;;;;;0.70;0.70;;;5.10;1.00;;;;;;5116196;28;20225;-83
2024/01/05 05:06:31;;;;;;;0.80;0.80;;;5.10;1.00;;;;;;5115278;28;20189;-82
2024/01/05 05:08:57;;;;;;;0.70;0.70;;;5.10;1.00;;;;;;5115822;28;20184;-81
2024/01/05 05:11:22;;;;;;;0.70;0.70;;;5.10;1.00;;;;;;5116699;28;20177;-82
2024/01/05 05:13:48;;;;;;;0.90;0.90;;;5.10;1.00;;;;;;5116019;28;20643;-82
2024/01/05 05:16:13;;;;;;;0.70;0.70;;;5.00;1.00;;;;;;5114203;28;20248;-83
2024/01/05 05:18:39;;;;;;;0.80;0.80;;;5.00;1.00;;;;;;5114709;28;20490;-81
2024/01/05 05:21:05;;;;;;;0.80;0.80;;;5.00;1.00;;;;;;5125022;28;20173;-78
2024/01/05 05:23:31;;;;;;;0.80;0.80;;;5.10;1.00;;;;;;5138002;28;20169;-78
2024/01/05 05:25:57;;;;;;;0.90;0.90;;;5.10;1.00;;;;;;5115922;28;20541;-82
2024/01/05 05:28:23;;;;;;;0.80;0.80;;;5.00;1.00;;;;;;5113829;28;20234;-82
2024/01/05 05:30:49;;;;;;;0.80;0.80;;;4.80;1.00;;;;;;5115383;28;20181;-82
2024/01/05 05:33:14;;;;;;;0.80;0.80;;;4.80;1.00;;;;;;5114638;28;20260;-82
2024/01/05 05:35:40;;;;;;;0.70;0.70;;;4.70;1.00;;;;;;5112650;28;20219;-82
2024/01/05 05:38:06;;;;;;;0.73;0.73;;;4.70;1.00;;;;;;5114787;28;20169;-82
2024/01/05 05:40:32;;;;;;;0.80;0.80;;;4.70;1.00;;;;;;5114613;28;20165;-82
2024/01/05 05:42:57;;;;;;;0.80;0.80;;;4.70;1.00;;;;;;5114966;27;20168;-82
2024/01/05 05:45:23;;;;;;;0.70;0.70;;;4.60;1.00;;;;;;5117074;28;20176;-80
2024/01/05 05:47:49;;;;;;;0.80;0.80;;;4.60;1.00;;;;;;5123498;28;20803;-81
2024/01/05 05:50:15;;;;;;;0.70;0.70;;;4.70;1.00;;;;;;5121287;28;20175;-82
2024/01/05 05:52:40;;;;;;;0.70;0.70;;;4.70;1.00;;;;;;5117943;28;20274;-81
2024/01/05 05:55:06;;;;;;;0.80;0.80;;;4.70;1.00;;;;;;5114454;28;20251;-82
2024/01/05 05:57:32;;;;;;;0.80;0.80;;;4.70;1.00;;;;;;5114285;27;20269;-82
2024/01/05 05:59:59;;;;;;;0.80;0.80;;;4.60;1.00;;;;;;5114202;28;20177;-82
2024/01/05 06:02:24;;;;;;;0.80;0.80;;;4.50;1.00;;;;;;5113261;28;20641;-82
2024/01/05 06:04:50;;;;;;;0.90;0.90;;;4.50;1.00;;;;;;5114973;28;20176;-82
2024/01/05 06:07:16;;;;;;;0.70;0.70;;;4.40;1.00;;;;;;5126098;28;20193;-79
2024/01/05 06:09:42;;;;;;;0.80;0.80;;;4.50;1.00;;;;;;5127629;28;20177;-79
2024/01/05 06:12:09;;;;;;;0.70;0.70;;;4.50;1.00;;;;;;5127906;28;20207;-79
2024/01/05 06:14:36;;;;;;;0.70;0.70;;;4.40;1.00;;;;;;5125650;28;20176;-79
2024/01/05 06:17:02;;;;;;;0.70;0.70;;;4.40;1.00;;;;;;5125195;28;20237;-82
2024/01/05 06:19:27;;;;;;;0.80;0.80;;;4.40;1.00;;;;;;5115159;28;20218;-82
2024/01/05 06:21:53;;;;;;;0.80;0.80;;;4.40;1.00;;;;;;5116097;28;20201;-81
2024/01/05 06:24:18;;;;;;;0.83;0.83;;;4.40;1.00;;;;;;5124568;28;20212;-81
2024/01/05 06:26:44;;;;;;;0.90;0.90;;;4.40;1.00;;;;;;5126807;28;20254;-79
2024/01/05 06:29:09;;;;;;;0.80;0.80;;;4.40;1.00;;;;;;5126310;28;20264;-81
2024/01/05 06:31:35;;;;;;;0.80;0.80;;;4.40;1.00;;;;;;5113594;28;20809;-82
2024/01/05 06:34:01;;;;;;;0.77;0.77;;;4.40;1.00;;;;;;5113902;28;20173;-80
2024/01/05 06:36:26;;;;;;;0.80;0.80;;;4.40;1.00;;;;;;5113677;28;20227;-82
2024/01/05 06:38:52;;;;;;;0.80;0.80;;;4.40;1.00;;;;;;5118122;27;20180;-82
2024/01/05 06:41:17;;;;;;;0.70;0.70;;;4.40;1.00;;;;;;5118152;28;20181;-82
2024/01/05 06:43:43;;;;;;;0.70;0.70;;;4.40;1.00;;;;;;5116766;28;20279;-82
2024/01/05 06:46:08;;;;;;;0.70;0.70;;;4.40;1.00;;;;;;5117039;28;20670;-81
2024/01/05 06:48:34;;;;;;;0.73;0.73;;;4.40;1.00;;;;;;5116834;28;20180;-80
2024/01/05 06:50:59;;;;;;;0.80;0.80;;;4.50;1.00;;;;;;5116698;28;20233;-81
2024/01/05 06:53:25;;;;;;;0.80;0.80;;;4.50;1.00;;;;;;5116660;28;20195;-80
2024/01/05 06:55:51;;;;;;;0.80;0.80;;;4.50;1.00;;;;;;5116189;28;20200;-81
2024/01/05 06:58:16;;;;;;;0.80;0.80;;;4.50;1.00;;;;;;5116486;28;20209;-81
2024/01/05 07:00:42;;;;;;;0.80;0.80;;;4.60;1.00;;;;;;5116153;28;20165;-82
2024/01/05 07:03:08;;;;;;;0.77;0.77;;;4.60;1.00;;;;;;5115720;28;20232;-81
2024/01/05 07:05:33;;;;;;;0.80;0.80;;;4.90;1.00;;;;;;5115508;28;20173;-81
2024/01/05 07:07:59;;;;;;;0.80;0.80;;;4.70;1.00;;;;;;5116859;28;20173;-81
2024/01/05 07:10:25;;;;;;;0.80;0.80;;;4.70;1.00;;;;;;5117182;28;20188;-81
2024/01/05 07:12:50;;;;;;;0.80;0.80;;;4.70;1.00;;;;;;5140200;28;20198;-79
2024/01/05 07:15:16;;;;;;;0.70;0.70;;;4.80;1.00;;;;;;5122629;27;20181;-82
2024/01/05 07:17:43;;;;;;;0.80;0.80;;;4.80;1.00;;;;;;5116424;28;20205;-82
2024/01/05 07:20:11;;;;;;;0.80;0.80;;;4.80;1.00;;;;;;5116938;28;20181;-81
2024/01/05 07:22:37;;;;;;;0.80;0.80;;;4.80;1.00;;;;;;5115607;28;20587;-82
2024/01/05 07:25:03;;;;;;;0.80;0.80;;;4.80;1.00;;;;;;5115903;28;20802;-82
2024/01/05 07:27:29;;;;;;;0.77;0.77;;;4.70;1.00;;;;;;5114953;28;20200;-81
2024/01/05 07:29:55;;;;;;;0.70;0.70;;;4.70;1.00;;;;;;5117217;28;20252;-82
2024/01/05 07:32:21;;;;;;;0.70;0.70;;;4.70;1.00;;;;;;5117882;28;20615;-81
2024/01/05 07:34:46;;;;;;;0.80;0.80;;;4.70;1.00;;;;;;5117163;28;20170;-81
2024/01/05 07:37:12;;;;;;;0.80;0.80;;;4.70;1.00;;;;;;5116160;28;20216;-81
2024/01/05 07:39:38;;;;;;;0.77;0.77;;;4.70;1.00;;;;;;5116736;28;20368;-82
2024/01/05 07:42:04;;;;;;;0.80;0.80;;;4.70;1.00;;;;;;5116986;28;20634;-81
2024/01/05 07:44:30;;;;;;;0.80;0.80;;;4.70;1.00;;;;;;5117417;28;20208;-82
2024/01/05 07:46:56;;;;;;;0.80;0.80;;;4.70;1.00;;;;;;5115997;28;20581;-82
2024/01/05 07:49:21;;;;;;;0.70;0.70;;;4.60;1.00;;;;;;5118152;28;20260;-82
2024/01/05 07:51:47;;;;;;;0.77;0.77;;;4.60;1.00;;;;;;5118352;27;20657;-81
2024/01/05 07:54:12;;;;;;;0.80;0.80;;;4.60;1.00;;;;;;5126143;27;20176;-81
2024/01/05 07:56:38;;;;;;;0.80;0.80;;;4.60;1.00;;;;;;5122746;27;20219;-77
2024/01/05 07:59:04;;;;;;;0.80;0.80;;;4.50;1.00;;;;;;5130332;27;20203;-78
2024/01/05 08:01:30;;;;;;;0.80;0.80;;;4.60;1.00;;;;;;5142405;27;20168;-80
2024/01/05 08:03:55;;;;;;;0.80;0.80;;;4.60;1.00;;;;;;5126662;28;20157;-80
2024/01/05 08:06:21;;;;;;;0.73;0.73;;;4.60;1.00;;;;;;5118678;28;20592;-80
2024/01/05 08:08:47;;;;;;;0.70;0.70;;;4.70;1.00;;;;;;5106745;28;20260;-81
2024/01/05 08:11:14;;;;;;;0.70;0.70;;;4.70;1.00;;;;;;5104069;28;20222;-81
2024/01/05 08:13:43;;;;;;;0.70;0.70;;;4.80;1.00;;;;;;5106564;28;20269;-82
2024/01/05 08:16:09;;;;;;;0.70;0.70;;;4.80;1.00;;;;;;5101257;28;20209;-82
2024/01/05 08:18:37;;;;;;;0.80;0.80;;;4.90;1.00;;;;;;5110440;28;20173;-80
2024/01/05 08:21:03;;;;;;;0.80;0.80;;;4.90;1.00;;;;;;5105137;28;20173;-82
2024/01/05 08:23:30;;;;;;;0.90;0.90;;;5.00;1.00;;;;;;5108180;28;20169;-81
2024/01/05 08:25:55;;;;;;;0.70;0.70;;;5.10;1.00;;;;;;5107509;28;20202;-81
2024/01/05 08:28:21;;;;;;;0.80;0.80;;;5.30;1.00;;;;;;5104758;28;20176;-81
2024/01/05 08:30:46;;;;;;;0.80;0.80;;;5.40;1.00;;;;;;5111206;28;20184;-82
2024/01/05 08:33:12;;;;;;;0.80;0.80;;;5.50;1.00;;;;;;5117159;28;20165;-82
2024/01/05 08:35:39;;;;;;;0.80;0.80;;;5.50;1.00;;;;;;5138364;28;20165;-77
2024/01/05 08:38:11;;;;;;;0.73;0.73;;;5.50;1.00;;;;;;5127793;28;20212;-82
2024/01/05 08:40:36;;;;;;;0.80;0.80;;;5.50;1.00;;;;;;5116153;28;20594;-81
2024/01/05 08:43:03;;;;;;;0.80;0.80;;;5.60;1.00;;;;;;5118588;28;20181;-82
2024/01/05 08:45:31;;;;;;;0.80;0.80;;;5.70;1.00;;;;;;5117652;28;20169;-82
2024/01/05 08:47:56;;;;;;;0.60;0.60;;;5.70;1.00;;;;;;5120799;28;20183;-82
2024/01/05 08:50:22;;;;;;;0.80;0.80;;;5.70;1.00;;;;;;5119047;28;20169;-79
2024/01/05 08:52:48;;;;;;;0.70;0.70;;;5.70;1.00;;;;;;5124515;28;20164;-80
2024/01/05 08:55:15;;;;;;;0.83;0.83;;;5.70;1.00;;;;;;5125128;28;20185;-80
2024/01/05 08:57:40;;;;;;;0.70;0.70;;;5.70;1.00;;;;;;5121013;28;20239;-80
2024/01/05 09:00:12;;;;;;;0.77;0.77;;;5.70;1.00;;;;;;5114788;28;20579;-81
2024/01/05 09:02:38;;;;;;;0.80;0.80;;;5.90;1.00;;;;;;5115369;28;20169;-82
2024/01/05 09:05:04;;;;;;;0.80;0.80;;;6.40;1.00;;;;;;5114651;28;20653;-80
2024/01/05 09:07:33;;;;;;;0.70;0.70;;;6.10;1.00;;;;;;5114423;28;20218;-80
2024/01/05 09:09:59;;;;;;;0.70;0.70;;;6.20;1.00;;;;;;5114655;28;20237;-81
2024/01/05 09:12:24;;;;;;;0.90;0.90;;;6.40;1.00;;;;;;5115099;28;20323;-81
2024/01/05 09:14:50;;;;;;;0.80;0.80;;;6.60;1.00;;;;;;5115360;28;20252;-83
2024/01/05 09:17:16;;;;;;;0.60;0.60;;;6.60;1.00;;;;;;5114889;28;20233;-81
2024/01/05 09:19:43;;;;;;;0.80;0.80;;;6.70;1.00;;;;;;5125370;28;20191;-78
2024/01/05 09:22:08;;;;;;;0.80;0.80;;;6.70;1.00;;;;;;5128035;28;20178;-82
2024/01/05 09:24:34;;;;;;;0.70;0.70;;;6.80;99.90;;;;;;5117557;28;20541;-80
2024/01/05 09:27:04;;;;;;;0.87;0.87;;;6.90;99.90;;;;;;5117234;28;20189;-80
2024/01/05 09:29:31;;;;;;;0.80;0.80;;;7.00;99.90;;;;;;5117680;28;20197;-83
2024/01/05 09:31:57;;;;;;;0.80;0.80;;;7.00;99.90;;;;;;5116571;28;20172;-81
2024/01/05 09:34:22;;;;;;;0.80;0.80;;;7.10;99.90;;;;;;5116785;28;20489;-80
2024/01/05 09:36:48;;;;;;;0.70;0.70;;;7.00;99.90;;;;;;5114499;28;20216;-82
2024/01/05 09:39:14;;;;;;;0.80;0.80;;;7.00;99.90;;;;;;5118749;28;20176;-80
2024/01/05 09:41:42;;;;;;;0.70;0.70;;;7.00;42.90;;;;;;5116934;28;20192;-81
2024/01/05 09:44:10;;;;;;;0.70;0.70;;;7.10;1.00;;;;;;5117306;28;20226;-83
2024/01/05 09:46:38;;;;;;;0.70;0.70;;;7.10;1.00;;;;;;5115936;28;20733;-79
2024/01/05 09:49:05;;;;;;;0.60;0.60;;;7.30;1.00;;;;;;5116344;28;20229;-82
2024/01/05 09:51:31;;;;;;;0.87;0.87;;;7.50;1.00;;;;;;5116691;28;20169;-82
2024/01/05 09:53:56;;;;;;;0.70;0.70;;;7.90;1.00;;;;;;5116066;27;20260;-81
2024/01/05 09:56:25;;;;;;;0.70;0.70;;;8.20;1.00;;;;;;5115792;28;20237;-79
2024/01/05 09:58:52;;;;;;;0.73;0.73;;;8.40;99.90;;;;;;5114503;28;20169;-81
2024/01/05 10:01:28;;;;;;;0.73;0.73;;;8.50;99.90;;;;;;5115487;28;20177;-81
2024/01/05 10:04:01;;;;;;;0.80;0.80;;;8.40;99.90;;;;;;5115764;28;20292;-84
2024/01/05 10:06:28;;;;;;;0.70;0.70;;;8.30;1.00;;;;;;5117096;28;20670;-83
2024/01/05 10:08:58;;;;;;;0.80;0.80;;;8.20;1.00;;;;;;5115403;28;20268;-83
2024/01/05 10:11:35;;;;;;;0.70;0.70;;;8.00;1.00;;;;;;5119859;28;20172;-80
2024/01/05 10:14:07;;;;;;;0.70;0.70;;;7.80;1.00;;;;;;5119708;28;20177;-81
2024/01/05 10:16:39;;;;;;;0.70;0.70;;;7.60;1.00;;;;;;5118999;27;20205;-81
2024/01/05 10:19:19;;;;;;;0.80;0.80;;;7.50;1.00;;;;;;5119994;28;20180;-80
2024/01/05 10:21:47;;;;;;;0.73;0.73;;;7.50;99.90;;;;;;5119620;28;20713;-82
2024/01/05 10:24:24;;;;;;;0.80;0.80;;;7.40;99.90;;;;;;5119351;28;20225;-81
2024/01/05 10:27:04;;;;;;;0.73;0.73;;;7.30;99.90;;;;;;5118344;27;20196;-81
2024/01/05 10:29:31;;;;;;;0.80;0.80;;;6.90;1.00;;;;;;5118358;28;20168;-81
2024/01/05 10:32:17;;;;;;;0.70;0.70;;;6.90;1.00;;;;;;5119830;28;20195;-80
2024/01/05 10:34:44;;;;;;;0.80;0.80;;;6.80;1.00;;;;;;5119259;28;20173;-80
2024/01/05 10:37:10;;;;;;;0.80;0.80;;;6.80;1.00;;;;;;5118467;28;20220;-81
2024/01/05 10:39:36;;;;;;;0.80;0.80;;;6.80;1.00;;;;;;5121863;28;20179;-79
2024/01/05 10:42:35;;;;;;;0.80;0.80;;;6.90;1.00;;;;;;5121452;28;20184;-81
2024/01/05 10:45:01;;;;;;;0.70;0.70;;;6.90;1.00;;;;;;5122813;28;20177;-79
2024/01/05 10:47:31;;;;;;;0.70;0.70;;;7.00;1.00;;;;;;5121496;28;20213;-80
2024/01/05 10:49:57;;;;;;;0.80;0.80;;;7.20;1.00;;;;;;5123167;28;20553;-80
2024/01/05 10:52:24;;;;;;;0.80;0.80;;;7.40;1.00;;;;;;5123565;28;20635;-82
2024/01/05 10:54:52;;;;;;;0.70;0.70;;;7.60;1.00;;;;;;5123239;28;20204;-81
2024/01/05 10:57:19;;;;;;;0.70;0.70;;;7.80;1.00;;;;;;5119495;27;20295;-80
2024/01/05 10:59:45;;;;;;;0.70;0.70;;;7.90;99.90;;;;;;5117052;28;20547;-80
2024/01/05 11:02:24;;;;;;;0.77;0.77;;;8.00;67.90;;;;;;5116950;28;20173;-81
2024/01/05 11:05:05;;;;;;;0.70;0.70;;;8.00;99.90;;;;;;5116547;27;20177;-80
2024/01/05 11:07:33;;;;;;;0.80;0.80;;;8.10;71.80;;;;;;5110885;28;20543;-82
2024/01/05 11:10:26;;;;;;;0.70;0.70;;;8.10;99.90;;;;;;5112583;28;20721;-81
2024/01/05 11:13:06;;;;;;;0.77;0.77;;;8.10;99.90;;;;;;5117230;28;20654;-81
2024/01/05 11:16:06;;;;;;;0.70;0.70;;;8.10;99.90;;;;;;5117837;28;20172;-80
2024/01/05 11:19:07;;;;;;;0.60;0.60;;;8.10;99.90;;;;;;5116763;27;20195;-80
2024/01/05 11:21:45;;;;;;;0.70;0.70;;;8.10;1.00;;;;;;5096869;28;20649;-83
2024/01/05 11:24:14;;;;;;;0.70;0.70;;;8.20;1.00;;;;;;5115921;28;20209;-82
2024/01/05 11:26:42;;;;;;;0.70;0.70;;;8.10;99.90;;;;;;5116300;28;20697;-79
2024/01/05 11:29:47;;;;;;;0.70;0.70;;;8.00;1.00;;;;;;5100014;28;20174;-80
2024/01/05 11:32:44;;;;;;;0.70;0.70;;;8.10;1.00;;;;;;5099635;28;20173;-81
2024/01/05 11:35:16;;;;;;;0.70;0.70;;;8.10;1.00;;;;;;5106976;28;20204;-78
2024/01/05 11:37:42;;;;;;;0.77;0.77;;;7.80;1.00;;;;;;5112028;28;20225;-82
2024/01/05 11:40:25;;;;;;;0.70;0.70;;;8.00;1.00;;;;;;5104994;28;20205;-82
2024/01/05 11:42:52;;;;;;;0.70;0.70;;;7.90;1.00;;;;;;5096877;28;20242;-82
2024/01/05 11:45:49;;;;;;;0.60;0.60;;;8.00;1.00;;;;;;5097023;28;20178;-81
2024/01/05 11:48:33;;;;;;;0.70;0.70;;;8.00;1.00;;;;;;5097434;28;20178;-84
2024/01/05 11:51:02;;;;;;;0.70;0.70;;;8.00;1.00;;;;;;5097717;28;20170;-81
2024/01/05 11:53:28;;;;;;;0.70;0.70;;;8.10;99.90;;;;;;5096715;28;20170;-78
2024/01/05 11:55:59;;;;;;;0.70;0.70;;;8.00;99.90;;;;;;5095348;28;20209;-81
2024/01/05 11:58:31;;;;;;;0.80;0.80;;;8.00;99.90;;;;;;5096615;28;20216;-82
2024/01/05 12:00:58;;;;;;;0.70;0.70;;;8.10;99.90;;;;;;5095973;28;20169;-83
2024/01/05 12:03:25;;;;;;;0.80;0.80;;;8.10;1.00;;;;;;5096072;28;20180;-82
2024/01/05 12:05:55;;;;;;;0.80;0.80;;;8.20;1.00;;;;;;5094986;28;20193;-81
2024/01/05 12:08:21;;;;;;;0.80;0.80;;;8.20;1.00;;;;;;5095616;28;20217;-83
2024/01/05 12:10:55;;;;;;;0.70;0.70;;;8.20;1.00;;;;;;5095348;28;20242;-83
2024/01/05 12:13:23;;;;;;;0.70;0.70;;;8.20;1.00;;;;;;5094135;28;20211;-83
2024/01/05 12:15:52;;;;;;;0.70;0.70;;;8.20;1.00;;;;;;5095352;28;20281;-82
2024/01/05 12:18:18;;;;;;;0.70;0.70;;;8.20;1.00;;;;;;5095525;28;20239;-83
2024/01/05 12:20:44;;;;;;;0.80;0.80;;;8.30;1.00;;;;;;5094516;28;20245;-83
2024/01/05 12:23:11;;;;;;;0.90;0.90;;;8.40;1.00;;;;;;5096013;28;20188;-83
2024/01/05 12:25:39;;;;;;;0.73;0.73;;;8.30;1.00;;;;;;5095541;28;20195;-82
2024/01/05 12:28:05;;;;;;;0.80;0.80;;;8.20;1.00;;;;;;5097258;28;20174;-83
2024/01/05 12:30:31;;;;;;;0.70;0.70;;;8.20;1.00;;;;;;5095461;28;20166;-83
2024/01/05 12:32:56;;;;;;;0.60;0.60;;;8.30;1.00;;;;;;5095195;28;20597;-83
2024/01/05 12:35:22;;;;;;;0.67;0.67;;;8.20;1.00;;;;;;5095548;28;20169;-81
2024/01/05 12:37:55;;;;;;;0.70;0.70;;;8.20;1.00;;;;;;5094974;28;20533;-83
2024/01/05 12:40:26;;;;;;;0.70;0.70;;;8.20;1.00;;;;;;5095054;28;20591;-83
2024/01/05 12:42:52;;;;;;;0.70;0.70;;;8.30;1.00;;;;;;5095154;28;20178;-81
2024/01/05 12:45:22;;;;;;;0.80;0.80;;;8.40;1.00;;;;;;5095515;28;20184;-81
2024/01/05 12:47:50;;;;;;;0.80;0.80;;;8.30;1.00;;;;;;5093208;28;20189;-80
2024/01/05 12:50:27;;;;;;;0.80;0.80;;;8.30;1.00;;;;;;5095777;28;20209;-80
2024/01/05 12:52:53;;;;;;;0.70;0.70;;;8.20;1.00;;;;;;5095465;28;20185;-78
2024/01/05 12:55:30;;;;;;;0.60;0.60;;;8.20;1.00;;;;;;5107453;28;20173;-81
2024/01/05 12:58:05;;;;;;;0.77;0.77;;;8.20;1.00;;;;;;5115879;27;20215;-81
2024/01/05 13:00:37;;;;;;;0.80;0.80;;;8.20;1.00;;;;;;5116213;28;20320;-82
2024/01/05 13:03:03;;;;;;;0.70;0.70;;;8.30;1.00;;;;;;5096857;28;20178;-81
2024/01/05 13:05:35;;;;;;;0.70;0.70;;;8.30;1.00;;;;;;5096645;28;20219;-82
2024/01/05 13:08:02;;;;;;;0.70;0.70;;;8.30;1.00;;;;;;5095796;28;20374;-82
2024/01/05 13:10:28;;;;;;;0.70;0.70;;;7.90;1.00;;;;;;5114563;28;20177;-82